This is the latest recevied weather packets stored in our database for station/object NA9VY-8. If no packets are shown the sender has not sent any weather packets the latest 1 day(s).
| Time | Temp. | Humidity | Pressure | Rain* | Wind** | Luminosity | Snow |
|---|---|---|---|---|---|---|---|
| 1778086694 | 14.44° C | 68% | 1018 hPa | 0 mm | - | 324 W/m² | - |
| 1778086391 | 14.44° C | 67% | 1017.9 hPa | 0 mm | - | 379 W/m² | - |
| 1778084872 | 12.78° C | 65% | 1018.2 hPa | 0 mm | - | 355 W/m² | - |
| 1778083662 | 12.22° C | 73% | 1017.7 hPa | 0 mm | - | 341 W/m² | - |
| 1778081015 | 11.11° C | 81% | 1017.7 hPa | 0 mm | - | 256 W/m² | - |
| 1778080107 | 11.11° C | 83% | 1018 hPa | 0 mm | - | 361 W/m² | - |
| 1778079804 | 10.56° C | 81% | 1018.3 hPa | 0 mm | - | 328 W/m² | - |
| 1778078591 | 11.11° C | 85% | 1018.2 hPa | 0 mm | - | 618 W/m² | - |
| 1778077986 | 10.56° C | 86% | 1017.9 hPa | 0 mm | - | 411 W/m² | - |
| 1778077382 | 10° C | 89% | 1017.8 hPa | 0 mm | - | 201 W/m² | - |
| 1778077080 | 9.44° C | 89% | 1018 hPa | 0 mm | - | 170 W/m² | - |
| 1778076778 | 8.89° C | 88% | 1017.9 hPa | 0 mm | - | 142 W/m² | - |
| 1778076172 | 9.44° C | 92% | 1017.6 hPa | 0 mm | - | 172 W/m² | - |
| 1778075262 | 8.89° C | 92% | 1017 hPa | 0 mm | - | 102 W/m² | - |
| 1778073140 | 7.78° C | 97% | 1016.9 hPa | 0 mm | - | 97 W/m² | - |
| 1778071930 | 7.78° C | 99% | 1017 hPa | 0 mm | - | 61 W/m² | - |
| 1778069813 | 7.22° C | 99% | 1016.7 hPa | 0 mm | - | 53 W/m² | - |
| 1778068904 | 7.22° C | 99% | 1016.9 hPa | 0 mm | - | 28 W/m² | - |
| 1778067997 | 7.22° C | 99% | 1016.3 hPa | 0 mm | - | 49 W/m² | - |
| 1778065879 | 6.67° C | 99% | 1015.4 hPa | 0 mm | - | 18 W/m² | - |
| 1778065274 | 6.67° C | 99% | 1015.1 hPa | 0 mm | - | 11 W/m² | - |
| 1778064970 | 6.67° C | 99% | 1015.2 hPa | 0 mm | - | 4 W/m² | - |
| 1778063155 | 6.67° C | 99% | 1014.8 hPa | 0 mm | - | 0 W/m² | - |
| 1778062852 | 6.67° C | 99% | 1014.9 hPa | 0 mm | - | 0 W/m² | - |
| 1778061944 | 6.67° C | 99% | 1014 hPa | 0 mm | - | 0 W/m² | - |
* Rain latest hour (hover to see other rain measurements)
** Current wind speed in m/s (hover to see current wind gust speed)